createdAt,value
2018-10-09T00:02:00.496Z,21.65
2018-10-09T00:04:28.140Z,21.63
2018-10-09T00:06:54.785Z,21.58
2018-10-09T00:09:21.472Z,21.60
2018-10-09T00:11:48.116Z,21.58
2018-10-09T00:14:14.785Z,21.63
2018-10-09T00:16:41.439Z,21.62
2018-10-09T00:19:09.477Z,21.58
2018-10-09T00:21:36.176Z,21.59
2018-10-09T00:24:03.729Z,21.57
2018-10-09T00:26:30.412Z,21.65
2018-10-09T00:28:57.054Z,21.57
2018-10-09T00:31:23.721Z,21.58
2018-10-09T00:33:50.406Z,21.50
2018-10-09T00:36:17.362Z,21.54
2018-10-09T00:38:44.009Z,21.59
2018-10-09T00:41:10.668Z,21.56
2018-10-09T00:43:39.532Z,21.56
2018-10-09T00:46:06.226Z,21.58
2018-10-09T00:48:32.899Z,21.57
2018-10-09T00:51:00.349Z,21.58
2018-10-09T00:53:28.017Z,21.61
2018-10-09T00:55:55.593Z,21.56
2018-10-09T00:58:23.252Z,21.55
2018-10-09T01:00:51.008Z,21.59
2018-10-09T01:03:18.476Z,21.55
2018-10-09T01:05:45.148Z,21.50
2018-10-09T01:08:11.796Z,21.51
2018-10-09T01:10:39.421Z,21.53
2018-10-09T01:13:06.091Z,21.54
2018-10-09T01:15:32.836Z,21.51
2018-10-09T01:17:59.488Z,21.49
2018-10-09T01:20:27.055Z,21.52
2018-10-09T01:22:53.740Z,21.53
2018-10-09T01:25:20.383Z,21.52
2018-10-09T01:27:47.036Z,21.53
2018-10-09T01:30:13.681Z,21.55
2018-10-09T01:32:40.700Z,21.57
2018-10-09T01:35:09.444Z,21.59
2018-10-09T01:37:37.079Z,21.50
2018-10-09T01:40:04.632Z,21.47
2018-10-09T01:42:32.184Z,21.46
2018-10-09T01:44:58.860Z,21.44
2018-10-09T01:47:26.516Z,21.48
2018-10-09T01:49:53.184Z,21.51
2018-10-09T01:52:19.843Z,21.53
2018-10-09T01:54:47.476Z,21.55
2018-10-09T01:57:14.961Z,21.60
2018-10-09T01:59:42.655Z,21.60
2018-10-09T02:02:10.265Z,21.56
2018-10-09T02:04:38.175Z,21.58
2018-10-09T02:07:05.177Z,21.49
2018-10-09T02:09:31.894Z,21.47
2018-10-09T02:11:59.487Z,21.53
2018-10-09T02:14:27.120Z,21.54
2018-10-09T02:16:54.680Z,21.57
2018-10-09T02:19:21.384Z,21.57
2018-10-09T02:21:49.069Z,21.55
2018-10-09T02:24:16.593Z,21.53
2018-10-09T02:26:44.221Z,21.51
2018-10-09T02:29:11.820Z,21.49
2018-10-09T02:31:39.904Z,21.49
2018-10-09T02:34:09.836Z,21.47
2018-10-09T02:36:39.637Z,21.46
2018-10-09T02:39:09.241Z,21.40
2018-10-09T02:41:38.140Z,21.42
2018-10-09T02:44:05.740Z,21.49
2018-10-09T02:46:32.420Z,21.52
2018-10-09T02:48:59.936Z,21.51
2018-10-09T02:51:27.480Z,21.46
2018-10-09T02:53:54.199Z,21.48
2018-10-09T02:56:21.779Z,21.51
2018-10-09T02:58:48.694Z,21.51
2018-10-09T03:01:15.764Z,21.46
2018-10-09T03:03:43.416Z,21.46
2018-10-09T03:06:10.652Z,21.50
2018-10-09T03:08:38.511Z,21.45
2018-10-09T03:11:05.905Z,21.43
2018-10-09T03:13:33.592Z,21.41
2018-10-09T03:16:01.279Z,21.40
2018-10-09T03:18:28.876Z,21.44
2018-10-09T03:20:55.524Z,21.47
2018-10-09T03:23:23.141Z,21.42
2018-10-09T03:25:49.792Z,21.40
2018-10-09T03:28:17.476Z,21.40
2018-10-09T03:30:45.152Z,21.39
2018-10-09T03:33:12.809Z,21.37
2018-10-09T03:35:40.365Z,21.43
2018-10-09T03:38:10.176Z,21.41
2018-10-09T03:40:37.653Z,21.36
2018-10-09T03:43:04.331Z,21.37
2018-10-09T03:45:31.046Z,21.36
2018-10-09T03:47:57.719Z,21.37
2018-10-09T03:50:24.648Z,21.42
2018-10-09T03:52:51.309Z,21.39
2018-10-09T03:55:17.958Z,21.38
2018-10-09T03:57:44.641Z,21.42
2018-10-09T04:00:11.316Z,21.40
2018-10-09T04:02:40.192Z,21.38
2018-10-09T04:05:07.680Z,21.32
2018-10-09T04:07:35.288Z,21.39
2018-10-09T04:10:02.944Z,21.38
2018-10-09T04:12:30.565Z,21.40
2018-10-09T04:14:58.183Z,21.41
2018-10-09T04:17:25.873Z,21.41
2018-10-09T04:19:53.502Z,21.38
2018-10-09T04:22:22.357Z,21.44
2018-10-09T04:24:49.304Z,21.40
2018-10-09T04:27:17.139Z,21.41
2018-10-09T04:29:45.120Z,21.33
2018-10-09T04:32:12.567Z,21.34
2018-10-09T04:34:41.813Z,21.39
2018-10-09T04:37:10.504Z,21.38
2018-10-09T04:39:39.298Z,21.37
2018-10-09T04:42:09.548Z,21.41
2018-10-09T04:44:37.196Z,21.40
2018-10-09T04:47:04.683Z,21.45
2018-10-09T04:49:32.397Z,21.42
2018-10-09T04:51:59.977Z,21.42
2018-10-09T04:54:27.696Z,21.39
2018-10-09T04:56:55.140Z,21.39
2018-10-09T04:59:22.898Z,21.37
2018-10-09T05:01:50.604Z,21.38
2018-10-09T05:04:17.321Z,21.38
2018-10-09T05:06:44.812Z,21.39
2018-10-09T05:09:12.501Z,21.42
2018-10-09T05:11:41.481Z,21.35
2018-10-09T05:14:10.068Z,21.31
2018-10-09T05:16:39.696Z,21.29
2018-10-09T05:19:06.360Z,21.32
2018-10-09T05:21:34.270Z,21.32
2018-10-09T05:24:03.944Z,21.38
2018-10-09T05:26:31.616Z,21.36
2018-10-09T05:28:58.428Z,21.33
2018-10-09T05:31:25.158Z,21.28
2018-10-09T05:33:51.760Z,21.26
2018-10-09T05:36:18.420Z,21.29
2018-10-09T05:38:45.060Z,21.34
2018-10-09T05:41:11.760Z,21.35
2018-10-09T05:43:39.815Z,21.37
2018-10-09T05:46:08.149Z,21.44
2018-10-09T05:48:35.812Z,21.39
2018-10-09T05:51:02.572Z,21.40
2018-10-09T05:53:30.061Z,21.42
2018-10-09T05:55:57.683Z,21.48
2018-10-09T05:58:25.185Z,21.49
2018-10-09T06:00:51.978Z,21.44
2018-10-09T06:03:18.641Z,21.44
2018-10-09T06:05:46.193Z,21.43
2018-10-09T06:08:13.820Z,21.39
2018-10-09T06:10:41.289Z,21.41
2018-10-09T06:13:09.980Z,21.34
2018-10-09T06:15:36.729Z,21.34
2018-10-09T06:18:03.381Z,21.39
2018-10-09T06:20:30.025Z,21.40
2018-10-09T06:22:57.608Z,21.37
2018-10-09T06:25:24.272Z,21.39
2018-10-09T06:27:50.982Z,21.43
2018-10-09T06:30:17.652Z,21.37
2018-10-09T06:32:44.280Z,21.38
2018-10-09T06:35:10.916Z,21.41
2018-10-09T06:37:39.640Z,21.41
2018-10-09T06:40:08.127Z,21.49
2018-10-09T06:42:34.831Z,21.46
2018-10-09T06:45:01.490Z,21.47
2018-10-09T06:47:28.267Z,21.39
2018-10-09T06:49:55.753Z,21.40
2018-10-09T06:52:23.651Z,21.38
2018-10-09T06:54:51.292Z,21.38
2018-10-09T06:57:18.912Z,21.44
2018-10-09T06:59:45.711Z,21.43
2018-10-09T07:02:12.365Z,21.45
2018-10-09T07:04:39.908Z,21.49
2018-10-09T07:07:09.547Z,21.47
2018-10-09T07:09:36.184Z,21.42
2018-10-09T07:12:02.830Z,21.39
2018-10-09T07:14:29.573Z,21.84
2018-10-09T07:16:56.284Z,21.63
2018-10-09T07:19:23.993Z,21.64
2018-10-09T07:22:02.162Z,21.60
2018-10-09T07:24:29.897Z,21.58
2018-10-09T07:26:57.361Z,21.56
2018-10-09T07:29:24.838Z,21.61
2018-10-09T07:31:52.297Z,21.57
2018-10-09T07:34:19.917Z,21.55
2018-10-09T07:36:47.405Z,21.56
2018-10-09T07:39:15.060Z,21.58
2018-10-09T07:41:42.899Z,21.65
2018-10-09T07:44:10.534Z,21.56
2018-10-09T07:46:40.421Z,21.61
2018-10-09T07:49:10.285Z,21.58
2018-10-09T07:51:39.645Z,21.57
2018-10-09T07:54:08.318Z,21.65
2018-10-09T07:56:35.949Z,21.65
2018-10-09T07:59:03.648Z,21.61
2018-10-09T08:01:31.181Z,21.62
2018-10-09T08:03:58.808Z,21.67
2018-10-09T08:06:25.962Z,21.64
2018-10-09T08:08:53.542Z,21.61
2018-10-09T08:11:20.268Z,21.68
2018-10-09T08:13:47.842Z,21.73
2018-10-09T08:16:14.582Z,21.70
2018-10-09T08:18:42.070Z,21.73
2018-10-09T08:21:09.432Z,21.78
2018-10-09T08:23:38.313Z,21.83
2018-10-09T08:26:05.802Z,21.84
2018-10-09T08:28:33.405Z,21.84
2018-10-09T08:31:00.963Z,21.85
2018-10-09T08:33:28.625Z,21.92
2018-10-09T08:35:56.097Z,21.89
2018-10-09T08:38:23.729Z,21.81
2018-10-09T08:40:51.360Z,21.87
2018-10-09T08:43:18.969Z,21.91
2018-10-09T08:45:46.578Z,21.94
2018-10-09T08:48:14.284Z,21.93
2018-10-09T08:50:41.884Z,21.90
2018-10-09T08:53:10.317Z,21.91
2018-10-09T08:55:40.021Z,21.93
2018-10-09T08:58:09.717Z,21.94
2018-10-09T09:00:38.217Z,21.93
2018-10-09T09:03:05.750Z,21.94
2018-10-09T09:05:33.410Z,21.88
2018-10-09T09:08:01.053Z,21.87
2018-10-09T09:10:28.650Z,21.88
2018-10-09T09:12:55.346Z,21.93
2018-10-09T09:15:22.148Z,21.91
2018-10-09T09:17:48.810Z,21.94
2018-10-09T09:20:15.484Z,21.94
2018-10-09T09:22:42.237Z,22.00
2018-10-09T09:25:10.380Z,22.08
2018-10-09T09:27:37.898Z,22.04
2018-10-09T09:30:05.014Z,21.97
2018-10-09T09:32:32.537Z,22.01
2018-10-09T09:34:59.213Z,22.02
2018-10-09T09:37:26.661Z,22.03
2018-10-09T09:39:53.361Z,22.06
2018-10-09T09:42:20.042Z,22.05
2018-10-09T09:44:46.697Z,22.06
2018-10-09T09:47:13.390Z,22.10
2018-10-09T09:49:41.061Z,22.16
2018-10-09T09:54:35.134Z,22.21
2018-10-09T09:57:01.854Z,22.24
2018-10-09T09:59:28.533Z,22.25
2018-10-09T10:01:55.333Z,22.25
2018-10-09T10:04:22.003Z,22.23
2018-10-09T10:06:48.663Z,22.28
2018-10-09T10:09:15.354Z,22.31
2018-10-09T10:11:42.202Z,22.29
2018-10-09T10:14:10.041Z,22.25
2018-10-09T10:16:39.364Z,22.26
2018-10-09T10:19:08.178Z,22.28
2018-10-09T10:21:35.849Z,22.29
2018-10-09T10:24:03.402Z,22.32
2018-10-09T10:26:31.025Z,22.28
2018-10-09T10:28:58.739Z,22.33
2018-10-09T10:31:26.351Z,22.34
2018-10-09T10:33:53.920Z,22.36
2018-10-09T10:36:21.453Z,22.35
2018-10-09T10:38:49.107Z,22.36
2018-10-09T10:41:16.663Z,22.31
2018-10-09T10:43:44.336Z,22.31
2018-10-09T10:46:11.886Z,22.32
2018-10-09T10:48:45.321Z,22.33
2018-10-09T10:51:12.969Z,22.32
2018-10-09T10:53:40.681Z,22.32
2018-10-09T10:56:09.906Z,22.35
2018-10-09T10:58:40.089Z,22.34
2018-10-09T11:01:08.149Z,22.35
2018-10-09T11:03:35.805Z,22.37
2018-10-09T11:06:03.362Z,22.38
2018-10-09T11:08:31.076Z,22.38
2018-10-09T11:10:57.661Z,22.38
2018-10-09T11:13:25.308Z,22.43
2018-10-09T11:15:52.950Z,22.46
2018-10-09T11:18:20.537Z,22.46
2018-10-09T11:20:48.245Z,22.51
2018-10-09T11:23:15.904Z,22.50
2018-10-09T11:25:43.510Z,22.47
2018-10-09T11:28:11.224Z,22.50
2018-10-09T11:30:43.212Z,22.50
2018-10-09T11:33:11.068Z,22.48
2018-10-09T11:35:39.501Z,22.45
2018-10-09T11:38:06.959Z,22.50
2018-10-09T11:40:34.301Z,22.51
2018-10-09T11:43:00.974Z,22.53
2018-10-09T11:45:27.692Z,22.53
2018-10-09T11:47:54.360Z,22.57
2018-10-09T11:50:21.148Z,22.58
2018-10-09T11:52:47.817Z,22.59
2018-10-09T11:55:14.504Z,22.59
2018-10-09T11:57:41.205Z,22.57
2018-10-09T12:00:10.161Z,22.58
2018-10-09T12:02:37.407Z,22.56
2018-10-09T12:05:04.993Z,22.54
2018-10-09T12:07:32.682Z,22.52
2018-10-09T12:10:00.264Z,22.52
2018-10-09T12:12:27.309Z,22.57
2018-10-09T12:14:54.949Z,22.58
2018-10-09T12:17:22.901Z,22.58
2018-10-09T12:19:50.518Z,22.56
2018-10-09T12:22:17.174Z,22.51
2018-10-09T12:24:44.659Z,22.54
2018-10-09T12:27:12.238Z,22.52
2018-10-09T12:29:40.685Z,22.52
2018-10-09T12:32:09.868Z,22.52
2018-10-09T12:34:39.820Z,22.50
2018-10-09T12:37:08.249Z,22.49
2018-10-09T12:39:35.901Z,22.49
2018-10-09T12:42:03.540Z,22.50
2018-10-09T12:44:31.121Z,22.54
2018-10-09T12:46:58.731Z,22.55
2018-10-09T12:49:26.405Z,22.54
2018-10-09T12:51:53.922Z,22.54
2018-10-09T12:54:21.401Z,22.50
2018-10-09T12:56:48.973Z,22.50
2018-10-09T12:59:16.576Z,22.51
2018-10-09T13:01:44.125Z,22.52
2018-10-09T13:04:11.629Z,22.50
2018-10-09T13:06:40.365Z,22.53
2018-10-09T13:09:11.125Z,22.51
2018-10-09T13:11:41.223Z,22.50
2018-10-09T13:14:10.213Z,22.50
2018-10-09T13:16:39.473Z,22.51
2018-10-09T13:19:07.021Z,22.50
2018-10-09T13:21:35.634Z,22.50
2018-10-09T13:24:02.933Z,22.52
2018-10-09T13:26:30.568Z,22.50
2018-10-09T13:28:58.238Z,22.50
2018-10-09T13:31:25.615Z,22.50
2018-10-09T13:33:53.146Z,22.45
2018-10-09T13:36:20.641Z,22.46
2018-10-09T13:38:47.313Z,22.48
2018-10-09T13:41:14.050Z,22.48
2018-10-09T13:43:40.702Z,22.46
2018-10-09T13:46:10.109Z,22.47
2018-10-09T13:48:36.817Z,22.47
2018-10-09T13:51:04.273Z,22.48
2018-10-09T13:53:31.781Z,22.47
2018-10-09T13:55:59.330Z,22.49
2018-10-09T13:58:26.810Z,22.47
2018-10-09T14:00:54.442Z,22.46
2018-10-09T14:03:22.242Z,22.47
2018-10-09T14:05:49.841Z,22.46
2018-10-09T14:08:17.369Z,22.44
2018-10-09T14:10:44.925Z,22.46
2018-10-09T14:13:12.509Z,22.49
2018-10-09T14:15:41.536Z,22.46
2018-10-09T14:18:10.617Z,22.44
2018-10-09T14:20:39.637Z,22.44
2018-10-09T14:23:09.537Z,22.42
2018-10-09T14:25:37.037Z,22.44
2018-10-09T14:28:05.373Z,22.44
2018-10-09T14:30:32.901Z,22.44
2018-10-09T14:33:00.504Z,22.45
2018-10-09T14:35:28.116Z,22.50
2018-10-09T14:37:55.849Z,22.48
2018-10-09T14:40:23.367Z,22.52
2018-10-09T14:42:50.956Z,22.51
2018-10-09T14:45:18.557Z,22.51
2018-10-09T14:47:45.253Z,22.50
2018-10-09T14:50:12.866Z,22.53
2018-10-09T14:52:41.546Z,22.53
2018-10-09T14:55:10.338Z,22.55
2018-10-09T14:57:39.849Z,22.54
2018-10-09T15:00:10.001Z,22.54
2018-10-09T15:02:38.369Z,22.55
2018-10-09T15:05:06.004Z,22.56
2018-10-09T15:07:34.896Z,22.54
2018-10-09T15:10:02.343Z,22.54
2018-10-09T15:12:30.001Z,22.55
2018-10-09T15:14:57.624Z,22.51
2018-10-09T15:17:24.330Z,22.51
2018-10-09T15:19:52.087Z,22.50
2018-10-09T15:22:19.588Z,22.49
2018-10-09T15:24:47.154Z,22.49
2018-10-09T15:27:14.674Z,22.47
2018-10-09T15:29:41.435Z,22.47
2018-10-09T15:32:10.521Z,22.49
2018-10-09T15:34:38.434Z,22.45
2018-10-09T15:37:05.131Z,22.44
2018-10-09T15:39:31.788Z,22.48
2018-10-09T15:41:59.261Z,22.48
2018-10-09T15:44:25.976Z,22.45
2018-10-09T15:46:52.640Z,22.45
2018-10-09T15:49:19.356Z,22.43
2018-10-09T15:51:45.992Z,22.44
2018-10-09T15:54:12.909Z,22.46
2018-10-09T15:56:40.574Z,22.46
2018-10-09T15:59:07.849Z,22.42
2018-10-09T16:01:34.530Z,22.38
2018-10-09T16:04:02.132Z,22.38
2018-10-09T16:06:29.593Z,22.44
2018-10-09T16:08:57.286Z,22.54
2018-10-09T16:11:24.044Z,22.53
2018-10-09T16:13:51.773Z,22.53
2018-10-09T16:16:19.232Z,22.53
2018-10-09T16:18:47.152Z,22.50
2018-10-09T16:21:14.816Z,22.51
2018-10-09T16:23:42.717Z,22.56
2018-10-09T16:26:10.300Z,22.53
2018-10-09T16:28:39.292Z,22.50
2018-10-09T16:31:06.796Z,22.49
2018-10-09T16:33:34.454Z,22.47
2018-10-09T16:36:02.129Z,22.50
2018-10-09T16:38:29.686Z,22.50
2018-10-09T16:40:56.312Z,22.47
2018-10-09T16:43:23.753Z,22.48
2018-10-09T16:45:51.333Z,22.48
2018-10-09T16:48:19.035Z,22.58
2018-10-09T16:50:46.494Z,22.61
2018-10-09T16:53:14.569Z,22.64
2018-10-09T16:55:41.828Z,22.65
2018-10-09T16:58:10.216Z,22.68
2018-10-09T17:00:39.621Z,22.64
2018-10-09T17:03:07.157Z,22.56
2018-10-09T17:05:34.560Z,22.47
2018-10-09T17:08:01.998Z,22.42
2018-10-09T17:10:28.691Z,22.42
2018-10-09T17:12:56.253Z,22.36
2018-10-09T17:15:23.011Z,22.35
2018-10-09T17:17:50.630Z,22.21
2018-10-09T17:20:18.265Z,22.25
2018-10-09T17:22:45.956Z,22.31
2018-10-09T17:25:13.448Z,22.37
2018-10-09T17:27:42.373Z,22.33
2018-10-09T17:30:11.421Z,22.38
2018-10-09T17:32:39.669Z,22.38
2018-10-09T17:35:09.957Z,22.36
2018-10-09T17:37:38.582Z,22.34
2018-10-09T17:40:06.194Z,22.38
2018-10-09T17:42:33.926Z,22.40
2018-10-09T17:45:02.520Z,22.39
2018-10-09T17:47:30.140Z,22.39
2018-10-09T17:49:57.819Z,22.45
2018-10-09T17:52:24.536Z,22.45
2018-10-09T17:54:51.953Z,22.39
2018-10-09T17:57:18.654Z,22.40
2018-10-09T17:59:45.302Z,22.42
2018-10-09T18:02:12.872Z,22.40
2018-10-09T18:04:40.525Z,22.40
2018-10-09T18:07:07.204Z,22.38
2018-10-09T18:09:34.545Z,22.43
2018-10-09T18:12:01.209Z,22.40
2018-10-09T18:14:27.898Z,22.37
2018-10-09T18:16:54.548Z,22.38
2018-10-09T18:19:21.193Z,22.39
2018-10-09T18:21:47.964Z,22.39
2018-10-09T18:24:14.684Z,22.39
2018-10-09T18:26:41.350Z,22.41
2018-10-09T18:29:10.362Z,22.43
2018-10-09T18:31:37.020Z,22.40
2018-10-09T18:34:03.693Z,22.38
2018-10-09T18:36:30.402Z,22.33
2018-10-09T18:38:57.033Z,22.36
2018-10-09T18:41:24.673Z,22.35
2018-10-09T18:43:51.437Z,22.35
2018-10-09T18:46:18.098Z,22.38
2018-10-09T18:48:44.772Z,22.38
2018-10-09T18:51:11.433Z,22.39
2018-10-09T18:53:39.601Z,22.39
2018-10-09T18:56:08.023Z,22.36
2018-10-09T18:58:36.174Z,22.36
2018-10-09T19:01:02.943Z,22.36
2018-10-09T19:03:30.893Z,22.36
2018-10-09T19:05:57.605Z,22.34
2018-10-09T19:08:25.397Z,22.34
2018-10-09T19:10:52.293Z,22.33
2018-10-09T19:13:19.942Z,22.37
2018-10-09T19:15:47.615Z,22.37
2018-10-09T19:18:15.160Z,22.36
2018-10-09T19:20:41.824Z,22.38
2018-10-09T19:23:10.662Z,22.38
2018-10-09T19:25:38.297Z,22.35
2018-10-09T19:28:05.050Z,22.34
2018-10-09T19:30:31.858Z,22.35
2018-10-09T19:32:58.569Z,22.36
2018-10-09T19:35:26.144Z,22.35
2018-10-09T19:37:52.843Z,22.34
2018-10-09T19:40:20.477Z,22.32
2018-10-09T19:42:48.090Z,22.37
2018-10-09T19:45:15.225Z,22.36
2018-10-09T19:47:43.000Z,22.31
2018-10-09T19:50:11.049Z,22.35
2018-10-09T19:52:40.125Z,22.34
2018-10-09T19:55:06.796Z,22.32
2018-10-09T19:57:34.474Z,22.34
2018-10-09T20:00:02.036Z,22.29
2018-10-09T20:02:29.717Z,22.33
2018-10-09T20:04:56.456Z,22.31
2018-10-09T20:07:24.154Z,22.32
2018-10-09T20:09:50.809Z,22.27
2018-10-09T20:12:17.549Z,22.22
2018-10-09T20:14:44.194Z,22.20
2018-10-09T20:17:11.759Z,22.20
2018-10-09T20:19:42.186Z,22.14
2018-10-09T20:22:11.172Z,22.11
2018-10-09T20:24:39.717Z,22.14
2018-10-09T20:27:09.794Z,22.22
2018-10-09T20:29:40.241Z,22.22
2018-10-09T20:32:10.480Z,22.19
2018-10-09T20:34:40.296Z,22.25
2018-10-09T20:37:10.463Z,22.25
2018-10-09T20:39:37.102Z,22.20
2018-10-09T20:44:31.706Z,22.26
2018-10-09T20:46:59.208Z,22.20
2018-10-09T20:49:25.880Z,22.23
2018-10-09T20:51:53.427Z,22.21
2018-10-09T20:54:20.066Z,22.22
2018-10-09T20:56:46.706Z,22.21
2018-10-09T20:59:13.341Z,22.26
2018-10-09T21:01:41.084Z,22.35
2018-10-09T21:04:08.308Z,22.34
2018-10-09T21:06:35.860Z,22.38
2018-10-09T21:09:02.660Z,22.40
2018-10-09T21:11:29.305Z,22.38
2018-10-09T21:13:55.957Z,22.39
2018-10-09T21:16:22.632Z,22.36
2018-10-09T21:18:49.273Z,22.33
2018-10-09T21:21:15.936Z,22.36
2018-10-09T21:23:42.582Z,22.36
2018-10-09T21:26:11.145Z,22.37
2018-10-09T21:28:39.865Z,22.36
2018-10-09T21:31:06.520Z,22.32
2018-10-09T21:33:34.208Z,22.32
2018-10-09T21:36:01.813Z,22.30
2018-10-09T21:38:29.446Z,22.27
2018-10-09T21:40:57.121Z,22.21
2018-10-09T21:43:24.862Z,22.22
2018-10-09T21:45:52.506Z,22.20
2018-10-09T21:48:20.234Z,22.21
2018-10-09T21:53:14.441Z,22.27
2018-10-09T21:55:41.085Z,22.32
2018-10-09T21:58:10.310Z,22.31
2018-10-09T22:00:43.661Z,22.31
2018-10-09T22:05:37.328Z,22.24
2018-10-09T22:08:05.512Z,22.26
2018-10-09T22:10:33.164Z,22.27
2018-10-09T22:13:00.880Z,22.29
2018-10-09T22:15:28.548Z,22.28
2018-10-09T22:17:56.213Z,22.31
2018-10-09T22:20:23.682Z,22.27
2018-10-09T22:22:50.328Z,22.31
2018-10-09T22:25:17.872Z,22.25
2018-10-09T22:30:12.618Z,22.20
2018-10-09T22:32:41.730Z,22.23
2018-10-09T22:35:10.641Z,22.25
2018-10-09T22:37:39.689Z,22.21
2018-10-09T22:40:07.308Z,22.23
2018-10-09T22:42:35.113Z,22.22
2018-10-09T22:45:02.553Z,22.25
2018-10-09T22:47:30.160Z,22.23
2018-10-09T22:49:56.818Z,22.22
2018-10-09T22:54:50.916Z,22.21
2018-10-09T22:57:18.351Z,22.20
2018-10-09T22:59:45.961Z,22.19
2018-10-09T23:02:12.693Z,22.19
2018-10-09T23:04:41.656Z,22.26
2018-10-09T23:07:09.505Z,22.19
2018-10-09T23:09:37.108Z,22.22
2018-10-09T23:12:04.575Z,22.26
2018-10-09T23:14:32.129Z,22.23
2018-10-09T23:16:59.794Z,22.22
2018-10-09T23:19:27.329Z,22.19
2018-10-09T23:21:54.980Z,22.19
2018-10-09T23:24:22.536Z,22.26
2018-10-09T23:26:50.079Z,22.24
2018-10-09T23:29:17.793Z,22.28
2018-10-09T23:31:45.293Z,22.21
2018-10-09T23:36:39.435Z,22.22
2018-10-09T23:39:06.431Z,22.24
2018-10-09T23:41:33.069Z,22.22
2018-10-09T23:43:59.703Z,22.20
2018-10-09T23:46:26.352Z,22.18
2018-10-09T23:48:53.820Z,22.15
2018-10-09T23:51:20.477Z,22.16
2018-10-09T23:53:47.134Z,22.22
2018-10-09T23:56:13.852Z,22.18
2018-10-09T23:58:40.504Z,22.20
